createdAt,value
2022-12-04T00:00:27.439Z,1.57
2022-12-04T00:02:54.319Z,1.61
2022-12-04T00:05:21.143Z,1.42
2022-12-04T00:07:47.888Z,1.49
2022-12-04T00:10:14.712Z,1.54
2022-12-04T00:12:41.430Z,1.45
2022-12-04T00:15:25.893Z,1.43
2022-12-04T00:17:53.952Z,1.31
2022-12-04T00:20:20.673Z,1.38
2022-12-04T00:22:47.444Z,1.46
2022-12-04T00:25:14.157Z,1.44
2022-12-04T00:27:41.043Z,1.33
2022-12-04T00:30:08.602Z,1.32
2022-12-04T00:32:35.395Z,1.27
2022-12-04T00:35:02.271Z,1.36
2022-12-04T00:37:28.944Z,1.23
2022-12-04T00:39:55.851Z,1.29
2022-12-04T00:42:22.760Z,1.23
2022-12-04T00:44:49.583Z,1.19
2022-12-04T00:47:16.352Z,1.13
2022-12-04T00:49:43.105Z,1.16
2022-12-04T00:52:09.824Z,1.13
2022-12-04T00:54:36.544Z,1.13
2022-12-04T00:57:03.342Z,1.21
2022-12-04T00:59:30.144Z,1.17
2022-12-04T01:01:56.832Z,1.16
2022-12-04T01:04:23.566Z,1.08
2022-12-04T01:06:50.278Z,1.20
2022-12-04T01:09:17.117Z,1.13
2022-12-04T01:11:43.837Z,1.15
2022-12-04T01:14:10.557Z,1.11
2022-12-04T01:16:39.456Z,1.11
2022-12-04T01:19:08.911Z,1.21
2022-12-04T01:21:36.751Z,1.14
2022-12-04T01:24:04.639Z,1.08
2022-12-04T01:26:31.909Z,0.97
2022-12-04T01:28:59.269Z,0.99
2022-12-04T01:31:26.273Z,0.95
2022-12-04T01:33:53.313Z,0.96
2022-12-04T01:36:23.293Z,0.97
2022-12-04T01:38:50.702Z,1.00
2022-12-04T01:41:23.993Z,0.98
2022-12-04T01:44:22.958Z,1.03
2022-12-04T01:46:53.902Z,0.95
2022-12-04T01:49:43.464Z,1.05
2022-12-04T01:52:22.102Z,0.95
2022-12-04T01:55:00.827Z,0.97
2022-12-04T01:57:32.119Z,1.00
2022-12-04T02:00:11.315Z,0.97
2022-12-04T02:02:47.679Z,1.00
2022-12-04T02:05:17.905Z,1.02
2022-12-04T02:07:47.255Z,1.06
2022-12-04T02:10:14.847Z,0.89
2022-12-04T02:12:56.284Z,0.98
2022-12-04T02:15:36.666Z,0.97
2022-12-04T02:18:31.204Z,1.05
2022-12-04T02:21:06.355Z,1.01
2022-12-04T02:24:00.504Z,0.93
2022-12-04T02:26:51.348Z,1.03
2022-12-04T02:29:18.074Z,1.02
2022-12-04T02:31:55.428Z,1.01
2022-12-04T02:34:28.119Z,1.07
2022-12-04T02:37:03.951Z,1.03
2022-12-04T02:39:44.508Z,1.10
2022-12-04T02:42:19.471Z,0.99
2022-12-04T02:45:08.483Z,1.07
2022-12-04T02:47:38.103Z,1.06
2022-12-04T02:50:10.271Z,0.96
2022-12-04T02:52:42.743Z,0.96
2022-12-04T02:55:19.102Z,0.91
2022-12-04T02:57:51.031Z,0.91
2022-12-04T03:00:19.063Z,0.88
2022-12-04T03:02:56.592Z,0.96
2022-12-04T03:05:34.914Z,0.98
2022-12-04T03:08:08.675Z,1.01
2022-12-04T03:10:42.113Z,0.98
2022-12-04T03:13:29.232Z,1.02
2022-12-04T03:16:07.073Z,1.03
2022-12-04T03:18:40.722Z,1.07
2022-12-04T03:21:15.352Z,1.01
2022-12-04T03:24:05.342Z,1.06
2022-12-04T03:26:45.269Z,1.12
2022-12-04T03:29:33.750Z,1.06
2022-12-04T03:32:24.391Z,1.07
2022-12-04T03:34:58.470Z,0.97
2022-12-04T03:38:00.033Z,1.08
2022-12-04T03:40:34.323Z,1.17
2022-12-04T03:43:12.590Z,1.11
2022-12-04T03:45:52.784Z,1.09
2022-12-04T03:48:26.501Z,1.08
2022-12-04T03:51:06.749Z,1.26
2022-12-04T03:53:37.024Z,1.14
2022-12-04T03:56:14.043Z,1.15
2022-12-04T03:58:47.344Z,1.08
2022-12-04T04:01:19.037Z,1.06
2022-12-04T04:03:50.967Z,1.10
2022-12-04T04:06:32.779Z,1.24
2022-12-04T04:09:05.606Z,1.14
2022-12-04T04:11:38.446Z,1.17
2022-12-04T04:14:33.175Z,1.18
2022-12-04T04:17:23.833Z,1.26
2022-12-04T04:20:16.830Z,1.09
2022-12-04T04:23:03.829Z,1.18
2022-12-04T04:25:31.470Z,1.03
2022-12-04T04:27:58.941Z,1.07
2022-12-04T04:30:29.630Z,1.17
2022-12-04T04:33:16.342Z,1.13
2022-12-04T04:36:11.062Z,0.86
2022-12-04T04:38:46.024Z,1.19
2022-12-04T04:41:39.563Z,1.17
2022-12-04T04:44:18.110Z,1.21
2022-12-04T04:46:58.545Z,1.17
2022-12-04T04:49:30.383Z,1.19
2022-12-04T04:51:58.463Z,1.13
2022-12-04T04:54:27.469Z,1.23
2022-12-04T04:56:54.204Z,1.25
2022-12-04T04:59:20.991Z,1.21
2022-12-04T05:01:48.562Z,1.13
2022-12-04T05:04:15.409Z,1.27
2022-12-04T05:06:42.153Z,1.30
2022-12-04T05:09:08.884Z,1.21
2022-12-04T05:11:35.668Z,1.22
2022-12-04T05:14:02.432Z,1.25
2022-12-04T05:16:29.257Z,1.30
2022-12-04T05:19:14.443Z,1.22
2022-12-04T05:21:41.750Z,1.27
2022-12-04T05:24:09.542Z,1.07
2022-12-04T05:26:36.669Z,1.21
2022-12-04T05:29:03.474Z,1.22
2022-12-04T05:31:30.273Z,1.18
2022-12-04T05:33:57.386Z,1.30
2022-12-04T05:36:24.224Z,1.32
2022-12-04T05:38:50.994Z,1.18
2022-12-04T05:41:17.712Z,1.26
2022-12-04T05:43:44.504Z,1.28
2022-12-04T05:46:11.254Z,1.35
2022-12-04T05:56:01.609Z,1.38
2022-12-04T05:58:28.808Z,1.29
2022-12-04T06:00:55.967Z,1.30
2022-12-04T06:03:23.098Z,1.32
2022-12-04T06:05:49.929Z,1.26
2022-12-04T06:08:16.893Z,1.25
2022-12-04T06:10:43.632Z,1.34
2022-12-04T06:13:11.405Z,1.26
2022-12-04T06:15:39.687Z,1.21
2022-12-04T06:18:06.551Z,1.32
2022-12-04T06:20:34.293Z,1.48
2022-12-04T06:23:01.361Z,1.44
2022-12-04T06:25:28.114Z,1.26
2022-12-04T06:27:54.864Z,1.33
2022-12-04T06:30:21.593Z,1.36
2022-12-04T06:32:48.278Z,1.43
2022-12-04T06:35:15.033Z,1.45
2022-12-04T06:37:41.784Z,1.47
2022-12-04T06:40:09.030Z,1.21
2022-12-04T06:42:35.790Z,1.37
2022-12-04T06:45:02.585Z,1.38
2022-12-04T06:47:29.304Z,1.11
2022-12-04T06:49:56.307Z,1.35
2022-12-04T06:52:23.195Z,1.33
2022-12-04T06:54:49.906Z,1.38
2022-12-04T06:57:16.636Z,1.39
2022-12-04T06:59:43.431Z,1.37
2022-12-04T07:02:10.937Z,1.38
2022-12-04T07:04:37.769Z,1.47
2022-12-04T07:07:04.567Z,1.52
2022-12-04T07:09:31.272Z,1.37
2022-12-04T07:11:58.032Z,1.34
2022-12-04T07:14:24.747Z,1.38
2022-12-04T07:16:51.631Z,1.38
2022-12-04T07:19:18.365Z,1.42
2022-12-04T07:21:45.115Z,1.41
2022-12-04T07:24:17.082Z,1.45
2022-12-04T07:26:44.556Z,1.35
2022-12-04T07:29:11.190Z,1.49
2022-12-04T07:31:38.429Z,1.54
2022-12-04T07:34:05.311Z,1.50
2022-12-04T07:36:31.985Z,1.45
2022-12-04T07:38:58.786Z,1.58
2022-12-04T07:41:25.543Z,1.50
2022-12-04T07:43:52.278Z,1.47
2022-12-04T07:46:21.674Z,1.52
2022-12-04T07:48:48.464Z,1.48
2022-12-04T07:51:18.312Z,1.69
2022-12-04T07:53:45.626Z,1.54
2022-12-04T07:56:13.305Z,1.59
2022-12-04T07:58:41.033Z,1.53
2022-12-04T08:01:20.420Z,1.59
2022-12-04T08:03:49.172Z,1.69
2022-12-04T08:06:18.200Z,1.61
2022-12-04T08:08:45.114Z,1.53
2022-12-04T08:11:15.284Z,1.61
2022-12-04T08:13:42.278Z,1.64
2022-12-04T08:16:10.687Z,1.71
2022-12-04T08:18:38.399Z,1.71
2022-12-04T08:21:06.835Z,1.73
2022-12-04T08:23:34.755Z,1.66
2022-12-04T08:26:01.844Z,1.76
2022-12-04T08:28:29.796Z,1.74
2022-12-04T08:31:12.832Z,1.72
2022-12-04T08:33:39.944Z,1.74
2022-12-04T08:36:11.753Z,1.84
2022-12-04T08:38:38.786Z,1.80
2022-12-04T08:41:07.792Z,1.79
2022-12-04T08:43:34.911Z,1.72
2022-12-04T08:46:05.509Z,1.35
2022-12-04T08:48:33.107Z,1.75
2022-12-04T08:51:00.905Z,1.72
2022-12-04T08:53:27.783Z,1.80
2022-12-04T08:55:54.539Z,1.62
2022-12-04T08:58:21.433Z,1.89
2022-12-04T09:00:48.392Z,1.91
2022-12-04T09:03:17.478Z,1.96
2022-12-04T09:05:48.046Z,1.96
2022-12-04T09:08:16.311Z,1.82
2022-12-04T09:10:44.094Z,1.83
2022-12-04T09:13:11.047Z,1.85
2022-12-04T09:15:41.477Z,1.81
2022-12-04T09:18:09.357Z,1.89
2022-12-04T09:20:36.804Z,1.80
2022-12-04T09:23:05.587Z,1.53
2022-12-04T09:25:36.467Z,1.78
2022-12-04T09:28:03.991Z,1.88
2022-12-04T09:30:30.714Z,1.80
2022-12-04T09:32:57.471Z,1.99
2022-12-04T09:35:24.237Z,1.98
2022-12-04T09:37:50.977Z,1.94
2022-12-04T09:40:35.262Z,1.94
2022-12-04T09:43:33.913Z,1.93
2022-12-04T09:46:09.621Z,1.90
2022-12-04T09:48:40.069Z,1.95
2022-12-04T09:51:18.470Z,1.98
2022-12-04T09:53:56.623Z,2.00
2022-12-04T09:56:29.433Z,1.92
2022-12-04T09:59:11.342Z,2.01
2022-12-04T10:01:48.834Z,2.07
2022-12-04T10:04:17.392Z,2.00
2022-12-04T10:06:59.425Z,1.87
2022-12-04T10:09:52.402Z,2.12
2022-12-04T10:12:37.347Z,2.10
2022-12-04T10:15:09.146Z,2.11
2022-12-04T10:18:07.046Z,2.00
2022-12-04T10:21:06.913Z,2.02
2022-12-04T10:23:55.390Z,2.16
2022-12-04T10:26:28.473Z,2.13
2022-12-04T10:29:03.638Z,2.03
2022-12-04T10:31:33.382Z,1.97
2022-12-04T10:34:13.713Z,2.17
2022-12-04T10:36:44.965Z,1.98
2022-12-04T10:39:22.192Z,2.14
2022-12-04T10:41:51.913Z,2.21
2022-12-04T10:44:20.355Z,2.14
2022-12-04T10:46:47.659Z,2.14
2022-12-04T10:49:19.870Z,2.14
2022-12-04T10:51:47.550Z,2.06
2022-12-04T10:54:22.190Z,2.26
2022-12-04T10:56:52.546Z,2.17
2022-12-04T10:59:19.350Z,2.16
2022-12-04T11:01:46.539Z,2.28
2022-12-04T11:04:26.872Z,2.15
2022-12-04T11:07:19.505Z,2.10
2022-12-04T11:09:59.125Z,2.23
2022-12-04T11:12:26.197Z,2.29
2022-12-04T11:15:08.068Z,2.35
2022-12-04T11:17:34.789Z,2.28
2022-12-04T11:20:05.488Z,2.29
2022-12-04T11:22:33.711Z,2.33
2022-12-04T11:25:00.591Z,2.34
2022-12-04T11:27:33.565Z,2.39
2022-12-04T11:30:10.853Z,2.16
2022-12-04T11:32:38.851Z,2.26
2022-12-04T11:35:27.398Z,2.19
2022-12-04T11:38:06.683Z,2.31
2022-12-04T11:40:34.767Z,2.31
2022-12-04T11:43:06.235Z,2.35
2022-12-04T11:45:33.842Z,2.26
2022-12-04T11:48:03.952Z,2.25
2022-12-04T11:50:52.118Z,2.19
2022-12-04T11:53:32.063Z,2.00
2022-12-04T11:56:10.752Z,2.10
2022-12-04T11:58:47.184Z,2.19
2022-12-04T12:01:19.470Z,2.27
2022-12-04T12:04:13.871Z,2.34
2022-12-04T12:06:55.155Z,2.16
2022-12-04T12:09:47.912Z,2.33
2022-12-04T12:12:27.580Z,2.37
2022-12-04T12:15:12.612Z,2.26
2022-12-04T12:17:50.428Z,2.25
2022-12-04T12:20:35.671Z,2.22
2022-12-04T12:23:07.352Z,2.19
2022-12-04T12:25:56.392Z,2.05
2022-12-04T12:28:53.886Z,2.17
2022-12-04T12:31:41.001Z,2.31
2022-12-04T12:34:10.630Z,2.13
2022-12-04T12:36:47.468Z,2.14
2022-12-04T12:39:25.077Z,2.02
2022-12-04T12:41:59.703Z,2.08
2022-12-04T12:44:44.355Z,2.08
2022-12-04T12:47:19.791Z,1.77
2022-12-04T12:49:55.795Z,1.82
2022-12-04T12:52:36.117Z,2.05
2022-12-04T12:55:23.118Z,1.91
2022-12-04T12:58:04.756Z,2.19
2022-12-04T13:00:36.951Z,2.04
2022-12-04T13:03:37.310Z,1.95
2022-12-04T13:06:09.599Z,2.12
2022-12-04T13:08:49.233Z,2.10
2022-12-04T13:11:22.671Z,2.11
2022-12-04T13:13:55.671Z,2.00
2022-12-04T13:16:36.312Z,2.04
2022-12-04T13:19:24.314Z,2.20
2022-12-04T13:22:24.188Z,2.00
2022-12-04T13:25:23.318Z,2.18
2022-12-04T13:28:15.808Z,2.21
2022-12-04T13:31:26.145Z,2.19
2022-12-04T13:34:22.045Z,2.10
2022-12-04T13:37:27.206Z,2.19
2022-12-04T13:40:16.197Z,2.10
2022-12-04T13:42:43.196Z,2.16
2022-12-04T13:45:28.733Z,2.17
2022-12-04T13:48:00.688Z,1.83
2022-12-04T13:50:40.047Z,1.94
2022-12-04T13:53:26.990Z,2.14
2022-12-04T13:55:57.230Z,2.15
2022-12-04T13:58:31.346Z,2.06
2022-12-04T14:01:02.930Z,2.14
2022-12-04T14:03:49.030Z,2.10
2022-12-04T14:06:26.151Z,2.08
2022-12-04T14:09:03.025Z,2.21
2022-12-04T14:11:42.505Z,2.20
2022-12-04T14:14:24.968Z,2.15
2022-12-04T14:16:52.814Z,2.13
2022-12-04T14:19:53.390Z,1.91
2022-12-04T14:22:43.987Z,1.90
2022-12-04T14:25:13.708Z,1.93
2022-12-04T14:27:52.545Z,1.53
2022-12-04T14:30:21.025Z,1.86
2022-12-04T14:32:54.865Z,1.95
2022-12-04T14:35:24.913Z,1.93
2022-12-04T14:38:01.986Z,1.71
2022-12-04T14:40:44.565Z,1.82
2022-12-04T14:43:21.352Z,1.74
2022-12-04T14:46:00.270Z,1.79
2022-12-04T14:48:42.916Z,1.70
2022-12-04T14:51:30.595Z,1.75
2022-12-04T14:54:09.432Z,1.87
2022-12-04T14:57:12.153Z,1.95
2022-12-04T14:59:52.073Z,2.06
2022-12-04T15:02:28.709Z,2.10
2022-12-04T15:04:56.709Z,2.04
2022-12-04T15:07:31.182Z,2.10
2022-12-04T15:10:19.025Z,2.08
2022-12-04T15:12:52.025Z,2.02
2022-12-04T15:15:32.288Z,1.97
2022-12-04T15:18:13.805Z,1.97
2022-12-04T15:20:49.788Z,2.16
2022-12-04T15:23:35.622Z,2.12
2022-12-04T15:26:16.390Z,2.00
2022-12-04T15:28:49.912Z,2.16
2022-12-04T15:31:25.749Z,2.11
2022-12-04T15:33:56.782Z,2.03
2022-12-04T15:36:42.594Z,1.97
2022-12-04T15:39:16.427Z,1.93
2022-12-04T15:41:43.233Z,2.01
2022-12-04T15:44:30.032Z,1.98
2022-12-04T15:47:01.366Z,2.04
2022-12-04T15:49:31.075Z,2.03
2022-12-04T15:52:14.549Z,1.80
2022-12-04T15:54:48.355Z,1.97
2022-12-04T15:57:29.357Z,1.88
2022-12-04T16:00:01.280Z,1.98
2022-12-04T16:02:43.032Z,1.85
2022-12-04T16:05:21.873Z,2.03
2022-12-04T16:07:58.205Z,1.99
2022-12-04T16:10:34.234Z,1.98
2022-12-04T16:13:04.063Z,1.88
2022-12-04T16:15:41.661Z,1.84
2022-12-04T16:18:13.432Z,1.83
2022-12-04T16:20:41.391Z,1.83
2022-12-04T16:23:08.234Z,1.77
2022-12-04T16:25:34.954Z,1.78
2022-12-04T16:28:02.104Z,1.83
2022-12-04T16:30:32.956Z,1.76
2022-12-04T16:32:59.790Z,1.78
2022-12-04T16:35:26.584Z,1.61
2022-12-04T16:37:53.423Z,1.77
2022-12-04T16:40:20.183Z,1.76
2022-12-04T16:42:48.305Z,1.81
2022-12-04T16:45:31.510Z,1.84
2022-12-04T16:47:58.608Z,1.90
2022-12-04T16:50:27.145Z,1.93
2022-12-04T16:52:54.703Z,1.91
2022-12-04T16:55:39.951Z,1.88
2022-12-04T16:58:08.187Z,1.99
2022-12-04T17:00:36.556Z,1.88
2022-12-04T17:03:04.555Z,1.92
2022-12-04T17:05:35.833Z,2.00
2022-12-04T17:08:02.673Z,1.89
2022-12-04T17:10:30.232Z,1.88
2022-12-04T17:12:57.842Z,1.92
2022-12-04T17:15:24.806Z,1.89
2022-12-04T17:17:51.984Z,1.95
2022-12-04T17:20:20.512Z,1.92
2022-12-04T17:22:48.112Z,1.95
2022-12-04T17:25:16.511Z,1.95
2022-12-04T17:27:43.745Z,1.95
2022-12-04T17:30:12.145Z,1.78
2022-12-04T17:32:39.063Z,1.85
2022-12-04T17:35:07.106Z,1.99
2022-12-04T17:37:34.876Z,1.86
2022-12-04T17:40:01.913Z,2.01
2022-12-04T17:42:28.666Z,1.97
2022-12-04T17:44:55.707Z,1.98
2022-12-04T17:47:22.746Z,2.08
2022-12-04T17:49:49.543Z,1.96
2022-12-04T17:52:16.408Z,1.99
2022-12-04T17:54:43.167Z,2.01
2022-12-04T17:57:09.847Z,1.95
2022-12-04T17:59:36.675Z,1.83
2022-12-04T18:02:03.432Z,1.87
2022-12-04T18:04:30.313Z,1.85
2022-12-04T18:06:57.074Z,1.87
2022-12-04T18:09:23.831Z,1.91
2022-12-04T18:11:50.553Z,1.83
2022-12-04T18:14:22.264Z,1.80
2022-12-04T18:16:53.325Z,1.89
2022-12-04T18:19:22.275Z,1.95
2022-12-04T18:21:49.681Z,1.88
2022-12-04T18:24:17.071Z,1.86
2022-12-04T18:26:48.184Z,1.88
2022-12-04T18:29:20.706Z,1.97
2022-12-04T18:31:48.124Z,2.01
2022-12-04T18:34:15.471Z,2.02
2022-12-04T18:36:45.361Z,2.02
2022-12-04T18:39:16.834Z,1.98
2022-12-04T18:41:44.480Z,2.00
2022-12-04T18:44:11.585Z,2.00
2022-12-04T18:46:38.499Z,2.14
2022-12-04T18:49:05.865Z,2.11
2022-12-04T18:51:39.570Z,2.01
2022-12-04T18:54:21.829Z,2.06
2022-12-04T18:56:48.608Z,2.04
2022-12-04T18:59:18.527Z,2.11
2022-12-04T19:01:45.592Z,2.15
2022-12-04T19:04:13.994Z,2.09
2022-12-04T19:06:43.038Z,2.07
2022-12-04T19:09:12.851Z,2.03
2022-12-04T19:11:40.753Z,1.96
2022-12-04T19:14:16.107Z,2.04
2022-12-04T19:16:43.897Z,2.05
2022-12-04T19:19:15.653Z,2.03
2022-12-04T19:21:42.449Z,2.00
2022-12-04T19:24:10.665Z,2.04
2022-12-04T19:26:38.428Z,2.06
2022-12-04T19:29:06.154Z,2.03
2022-12-04T19:31:35.731Z,1.98
2022-12-04T19:34:02.993Z,1.91
2022-12-04T19:36:31.467Z,1.97
2022-12-04T19:38:59.027Z,1.98
2022-12-04T19:41:30.229Z,2.00
2022-12-04T19:43:59.387Z,1.99
2022-12-04T19:46:28.711Z,2.10
2022-12-04T19:48:58.786Z,2.19
2022-12-04T19:51:26.096Z,2.03
2022-12-04T19:53:54.833Z,2.04
2022-12-04T19:56:24.847Z,2.13
2022-12-04T19:58:53.332Z,2.05
2022-12-04T20:01:25.170Z,2.02
2022-12-04T20:03:52.191Z,1.81
2022-12-04T20:06:21.316Z,2.14
2022-12-04T20:08:53.113Z,2.04
2022-12-04T20:11:20.552Z,2.04
2022-12-04T20:13:49.312Z,2.01
2022-12-04T20:16:18.512Z,1.92
2022-12-04T20:18:46.188Z,1.88
2022-12-04T20:21:13.915Z,1.96
2022-12-04T20:23:43.034Z,1.88
2022-12-04T20:26:13.391Z,1.97
2022-12-04T20:28:41.271Z,1.92
2022-12-04T20:31:26.526Z,1.95
2022-12-04T20:33:55.424Z,1.91
2022-12-04T20:36:24.600Z,1.96
2022-12-04T20:38:58.150Z,1.89
2022-12-04T20:41:26.905Z,1.91
2022-12-04T20:43:53.759Z,1.93
2022-12-04T20:46:31.766Z,1.96
2022-12-04T20:49:00.709Z,1.84
2022-12-04T20:51:37.359Z,1.84
2022-12-04T20:54:05.127Z,1.77
2022-12-04T20:56:35.348Z,1.78
2022-12-04T20:59:05.079Z,1.71
2022-12-04T21:01:33.440Z,1.76
2022-12-04T21:04:01.689Z,1.78
2022-12-04T21:06:36.279Z,1.78
2022-12-04T21:09:08.999Z,1.76
2022-12-04T21:11:48.038Z,1.81
2022-12-04T21:14:45.886Z,1.73
2022-12-04T21:17:19.025Z,1.65
2022-12-04T21:19:47.751Z,1.64
2022-12-04T21:22:14.647Z,1.69
2022-12-04T21:24:42.337Z,1.74
2022-12-04T21:27:13.297Z,1.67
2022-12-04T21:29:43.848Z,1.65
2022-12-04T21:32:10.788Z,1.69
2022-12-04T21:34:37.590Z,1.67
2022-12-04T21:37:04.427Z,1.60
2022-12-04T21:39:31.187Z,1.64
2022-12-04T21:42:16.625Z,1.70
2022-12-04T21:44:43.623Z,1.63
2022-12-04T21:47:10.451Z,1.69
2022-12-04T21:49:37.187Z,1.61
2022-12-04T21:52:03.903Z,1.60
2022-12-04T21:54:30.834Z,1.70
2022-12-04T21:56:58.385Z,1.69
2022-12-04T21:59:26.148Z,1.74
2022-12-04T22:01:53.662Z,1.73
2022-12-04T22:04:21.121Z,1.80
2022-12-04T22:06:47.853Z,1.82
2022-12-04T22:09:14.710Z,1.78
2022-12-04T22:11:42.914Z,1.71
2022-12-04T22:14:11.438Z,1.68
2022-12-04T22:16:41.836Z,1.66
2022-12-04T22:19:13.079Z,1.73
2022-12-04T22:21:40.229Z,1.70
2022-12-04T22:24:07.567Z,1.73
2022-12-04T22:26:34.525Z,1.73
2022-12-04T22:29:03.166Z,1.75
2022-12-04T22:31:32.319Z,1.71
2022-12-04T22:34:00.677Z,1.79
2022-12-04T22:36:32.383Z,1.79
2022-12-04T22:39:09.342Z,1.76
2022-12-04T22:41:37.636Z,1.81
2022-12-04T22:44:05.273Z,1.83
2022-12-04T22:46:32.940Z,1.85
2022-12-04T22:49:00.144Z,1.83
2022-12-04T22:51:27.791Z,1.82
2022-12-04T22:53:57.435Z,1.83
2022-12-04T22:56:28.423Z,1.74
2022-12-04T22:58:56.464Z,1.78
2022-12-04T23:01:25.784Z,1.89
2022-12-04T23:03:53.844Z,1.81
2022-12-04T23:06:22.473Z,1.78
2022-12-04T23:08:49.312Z,1.78
2022-12-04T23:11:20.794Z,1.87
2022-12-04T23:13:52.108Z,1.83
2022-12-04T23:16:20.876Z,1.70
2022-12-04T23:18:48.490Z,1.85
2022-12-04T23:21:16.435Z,1.81
2022-12-04T23:23:45.031Z,1.81
2022-12-04T23:26:14.832Z,1.85
2022-12-04T23:28:41.591Z,1.85
2022-12-04T23:31:08.505Z,1.77
2022-12-04T23:33:35.431Z,1.89
2022-12-04T23:36:03.706Z,1.86
2022-12-04T23:38:31.145Z,1.89
2022-12-04T23:41:22.586Z,1.85
2022-12-04T23:43:50.423Z,1.82
2022-12-04T23:46:19.920Z,1.86
2022-12-04T23:48:47.753Z,1.85
2022-12-04T23:51:17.345Z,1.93
2022-12-04T23:53:45.184Z,1.80
2022-12-04T23:56:17.625Z,1.81
2022-12-04T23:58:45.945Z,1.82
